Time;durP1;ratioP1;P1;durP2;ratioP2;P2;SDS_P1;SDS_P2;PMS_P1;PMS_P2;Temp;Humidity;BMP_temperature;BMP_pressure;BME280_temperature;BME280_humidity;BME280_pressure;Samples;Min_cycle;Max_cycle;Signal;HPM_P1;HPM_P2
2023/06/12 00:01:37;;;;;;;;;0.00;0.00;;;;;-146.67;100.00;57155.34;5021094;28;8825;-81
2023/06/12 00:04:02;;;;;;;;;0.00;0.00;;;;;-146.67;100.00;57155.34;5023880;28;8838;-80
2023/06/12 00:06:28;;;;;;;;;0.00;0.00;;;;;-146.67;100.00;57155.34;5024627;28;8909;-80
2023/06/12 00:08:56;;;;;;;;;0.00;0.00;;;;;-146.67;100.00;57155.34;5024007;28;9920;-80
2023/06/12 00:11:22;;;;;;;;;0.00;0.00;;;;;-146.67;100.00;57155.34;5042197;28;8779;-80
2023/06/12 00:13:47;;;;;;;;;0.00;0.00;;;;;-146.67;100.00;57155.34;5042689;28;8904;-80
2023/06/12 00:16:13;;;;;;;;;14.33;11.33;;;;;-146.67;100.00;57155.34;5026957;28;8798;-80
2023/06/12 00:18:39;;;;;;;;;0.00;0.00;;;;;-146.67;100.00;57155.34;5040638;28;9941;-80
2023/06/12 00:21:10;;;;;;;;;0.00;0.00;;;;;-146.67;100.00;57155.34;5041919;28;8794;-80
2023/06/12 00:23:37;;;;;;;;;0.00;0.00;;;;;-146.67;100.00;57155.34;5042494;28;8783;-80
2023/06/12 00:26:03;;;;;;;;;0.00;0.00;;;;;-146.67;100.00;57155.34;5040288;28;9614;-80
2023/06/12 00:28:29;;;;;;;;;0.00;0.00;;;;;-146.67;100.00;57155.34;5042308;28;8865;-80
2023/06/12 00:30:54;;;;;;;;;0.00;0.00;;;;;-146.67;100.00;57155.34;5040725;28;8790;-80
2023/06/12 00:33:20;;;;;;;;;0.00;0.00;;;;;-146.67;100.00;57155.34;5040027;28;8861;-80
2023/06/12 00:35:45;;;;;;;;;0.00;0.00;;;;;-146.67;100.00;57155.34;5042129;28;9661;-80
2023/06/12 00:38:11;;;;;;;;;0.00;0.00;;;;;-146.67;100.00;57155.34;5039598;28;10085;-80
2023/06/12 00:40:37;;;;;;;;;0.00;0.00;;;;;-146.67;100.00;57155.34;5040360;28;8758;-80
2023/06/12 00:43:02;;;;;;;;;0.00;0.00;;;;;-146.67;100.00;57155.34;5040489;28;8821;-80
2023/06/12 00:45:28;;;;;;;;;0.00;0.00;;;;;-146.67;100.00;57155.34;5042117;28;8849;-80
2023/06/12 00:47:56;;;;;;;;;0.00;0.00;;;;;-146.67;100.00;57155.34;5038653;28;61136;-80
2023/06/12 00:50:27;;;;;;;;;0.00;0.00;;;;;-146.67;100.00;57155.34;5040443;28;8794;-80
2023/06/12 00:52:54;;;;;;;;;0.00;0.00;;;;;-146.67;100.00;57155.34;5030897;28;42359;-80
2023/06/12 00:55:20;;;;;;;;;0.00;0.00;;;;;-146.67;100.00;57155.34;5021831;28;8795;-80
2023/06/12 00:57:47;;;;;;;;;0.00;0.00;;;;;-146.67;100.00;57155.34;5043971;28;10295;-80
2023/06/12 01:00:14;;;;;;;;;0.00;0.00;;;;;-146.67;100.00;57155.34;5032079;28;9073;-81
2023/06/12 01:02:47;;;;;;;;;0.00;0.00;;;;;-146.67;100.00;57155.34;5044849;28;8747;-80
2023/06/12 01:05:16;;;;;;;;;0.00;0.00;;;;;-146.67;100.00;57155.34;5027153;28;8858;-80
2023/06/12 01:07:48;;;;;;;;;0.00;0.00;;;;;-146.67;100.00;57155.34;5045164;28;8767;-81
2023/06/12 01:10:44;;;;;;;;;0.00;0.00;;;;;-146.67;100.00;57155.34;5026227;28;8751;-80
2023/06/12 01:13:10;;;;;;;;;0.00;0.00;;;;;-146.67;100.00;57155.34;5044880;28;8787;-80
2023/06/12 01:15:36;;;;;;;;;0.00;0.00;;;;;-146.67;100.00;57155.34;5026941;28;8779;-80
2023/06/12 01:18:03;;;;;;;;;0.00;0.00;;;;;-146.67;100.00;57155.34;5027230;28;10002;-80
2023/06/12 01:20:29;;;;;;;;;0.00;0.00;;;;;-146.67;100.00;57155.34;5027044;28;8776;-80
2023/06/12 01:23:00;;;;;;;;;0.00;0.00;;;;;-146.67;100.00;57155.34;5026723;28;8834;-81
2023/06/12 01:26:00;;;;;;;;;0.00;0.00;;;;;-146.67;100.00;57155.34;5025257;28;42378;-80
2023/06/12 01:28:40;;;;;;;;;0.00;0.00;;;;;-146.67;100.00;57155.34;5044690;28;8841;-80
2023/06/12 01:31:31;;;;;;;;;0.00;0.00;;;;;-146.67;100.00;57155.34;5025920;28;8865;-80
2023/06/12 01:34:07;;;;;;;;;0.00;0.00;;;;;-146.67;100.00;57155.34;5022382;28;8761;-80
2023/06/12 01:36:37;;;;;;;;;0.00;0.00;;;;;-146.67;100.00;57155.34;5004904;28;8905;-80
2023/06/12 01:39:04;;;;;;;;;0.00;0.00;;;;;-146.67;100.00;57155.34;5034738;28;44878;-80
2023/06/12 01:41:31;;;;;;;;;0.00;0.00;;;;;-146.67;100.00;57155.34;5043446;28;8760;-80
2023/06/12 01:44:06;;;;;;;;;16.50;16.50;;;;;-146.67;100.00;57155.34;5036702;28;8799;-80
2023/06/12 01:46:32;;;;;;;;;17.00;15.25;;;;;-146.67;100.00;57155.34;5032777;28;9688;-80
2023/06/12 01:48:57;;;;;;;;;0.00;0.00;;;;;-146.67;100.00;57155.34;5026156;28;10142;-80
2023/06/12 01:51:22;;;;;;;;;0.00;0.00;;;;;-146.67;100.00;57155.34;5044162;28;8795;-81
2023/06/12 01:53:48;;;;;;;;;0.00;0.00;;;;;-146.67;100.00;57155.34;5044771;28;8799;-80
2023/06/12 01:56:14;;;;;;;;;0.00;0.00;;;;;-146.67;100.00;57155.34;5026512;28;8802;-80
2023/06/12 01:58:40;;;;;;;;;0.00;0.00;;;;;-146.67;100.00;57155.34;5024711;28;10111;-80
2023/06/12 02:01:05;;;;;;;;;0.00;0.00;;;;;-146.67;46.75;73465.88;5017884;28;44930;-80
2023/06/12 02:03:32;;;;;;;;;0.00;0.00;;;;;-146.67;100.00;57155.34;5037118;28;62475;-80
2023/06/12 02:05:57;;;;;;;;;0.00;0.00;;;;;-146.67;100.00;57155.34;5041690;28;8904;-80
2023/06/12 02:08:23;;;;;;;;;0.00;0.00;;;;;-146.67;100.00;57155.34;5043675;28;8802;-80
2023/06/12 02:10:48;;;;;;;;;0.00;0.00;;;;;-146.67;100.00;57155.34;5025934;28;8857;-80
2023/06/12 02:13:14;;;;;;;;;0.00;0.00;;;;;-146.67;100.00;57155.34;5040173;28;45364;-80
2023/06/12 02:15:39;;;;;;;;;0.00;0.00;;;;;-146.67;100.00;57155.34;5027839;28;62055;-80
2023/06/12 02:18:05;;;;;;;;;0.00;0.00;;;;;-146.67;100.00;57155.34;5027377;28;61805;-80
2023/06/12 02:20:31;;;;;;;;;0.00;0.00;;;;;-146.67;46.75;73465.88;4999124;28;62017;-80
2023/06/12 02:22:56;;;;;;;;;0.00;0.00;;;;;-146.67;100.00;57155.34;5009268;28;62013;-80
2023/06/12 02:25:21;;;;;;;;;0.00;0.00;;;;;-146.67;46.31;73529.75;5039034;28;61913;-81
2023/06/12 02:27:47;;;;;;;;;0.00;0.00;;;;;-146.67;100.00;57155.34;5026986;28;64889;-80
2023/06/12 02:30:12;;;;;;;;;0.00;0.00;;;;;-146.67;100.00;57155.34;5042331;28;8861;-81
2023/06/12 02:32:39;;;;;;;;;0.00;0.00;;;;;-146.67;44.70;73563.69;5035335;28;62259;-80
2023/06/12 02:35:08;;;;;;;;;0.00;0.00;;;;;-146.67;100.00;57155.34;5041974;28;30827;-80
2023/06/12 02:37:34;;;;;;;;;0.00;0.00;;;;;-146.67;100.00;57155.34;5043424;28;8897;-80
2023/06/12 02:40:00;;;;;;;;;0.00;0.00;;;;;-146.67;100.00;57155.34;5025200;28;8823;-80
2023/06/12 02:42:25;;;;;;;;;0.00;0.00;;;;;-146.67;100.00;57155.34;5041347;28;9675;-80
2023/06/12 02:44:50;;;;;;;;;0.00;0.00;;;;;-146.67;100.00;57155.34;5042224;28;8840;-80
2023/06/12 02:47:16;;;;;;;;;0.00;0.00;;;;;-146.67;100.00;57155.34;5033136;28;9861;-80
2023/06/12 02:49:44;;;;;;;;;15.33;11.33;;;;;-146.67;100.00;57155.34;5025407;28;8825;-80
2023/06/12 02:52:11;;;;;;;;;0.00;0.00;;;;;-146.67;100.00;57155.34;5041139;28;8825;-80
2023/06/12 02:54:36;;;;;;;;;0.00;0.00;;;;;-146.67;100.00;57155.34;5030912;28;61835;-80
2023/06/12 02:57:02;;;;;;;;;0.00;0.00;;;;;-146.67;46.87;73581.66;5008661;28;62459;-80
2023/06/12 02:59:27;;;;;;;;;0.00;0.00;;;;;-146.67;46.23;73585.63;5001347;28;61786;-80
2023/06/12 03:01:53;;;;;;;;;0.00;0.00;;;;;-146.67;100.00;57155.34;5037062;28;61108;-80
2023/06/12 03:04:20;;;;;;;;;0.00;0.00;;;;;-146.67;100.00;57155.34;5043563;28;8803;-80
2023/06/12 03:06:51;;;;;;;;;0.00;0.00;;;;;-146.67;100.00;57155.34;5043090;28;8751;-80
2023/06/12 03:09:18;;;;;;;;;0.00;0.00;;;;;-146.67;100.00;57155.34;5031236;28;8758;-80
2023/06/12 03:11:44;;;;;;;;;0.00;0.00;;;;;-146.67;100.00;57155.34;5041067;28;8824;-80
2023/06/12 03:14:09;;;;;;;;;0.00;0.00;;;;;-146.67;100.00;57155.34;5043583;28;8799;-80
2023/06/12 03:16:36;;;;;;;;;14.25;14.25;;;;;-146.67;100.00;57155.34;5042400;28;8783;-80
2023/06/12 03:19:02;;;;;;;;;1.00;0.00;;;;;-146.67;100.00;57155.34;5025337;28;8815;-80
2023/06/12 03:21:27;;;;;;;;;7.67;7.67;;;;;-146.67;100.00;57155.34;5041562;28;8819;-80
2023/06/12 03:23:53;;;;;;;;;0.00;0.00;;;;;-146.67;100.00;57155.34;5034305;28;8821;-80
2023/06/12 03:26:18;;;;;;;;;6.67;6.67;;;;;-146.67;100.00;57155.34;5042521;28;8812;-80
2023/06/12 03:28:45;;;;;;;;;0.00;0.00;;;;;-146.67;100.00;57155.34;5042992;28;8811;-81
2023/06/12 03:31:11;;;;;;;;;17.50;13.75;;;;;-146.67;100.00;57155.34;5042717;28;8778;-80
2023/06/12 03:33:36;;;;;;;;;0.00;0.00;;;;;-146.67;100.00;57155.34;5041634;28;9647;-81
2023/06/12 03:36:02;;;;;;;;;0.00;0.00;;;;;-146.67;100.00;57155.34;5041497;28;10178;-81
2023/06/12 03:38:28;;;;;;;;;7.00;7.00;;;;;-146.67;100.00;57155.34;5025316;28;8862;-80
2023/06/12 03:40:53;;;;;;;;;0.00;0.00;;;;;-146.67;100.00;57155.34;5022210;28;9585;-81
2023/06/12 03:43:18;;;;;;;;;0.00;0.00;;;;;-146.67;100.00;57155.34;5005336;28;8833;-80
2023/06/12 03:45:44;;;;;;;;;12.75;12.75;;;;;-146.67;100.00;57155.34;5031090;28;8811;-80
2023/06/12 03:48:10;;;;;;;;;0.33;0.33;;;;;-146.67;100.00;57155.34;5024891;28;8921;-80
2023/06/12 03:50:35;;;;;;;;;0.00;0.00;;;;;-146.67;100.00;57155.34;5025001;28;8900;-81
2023/06/12 03:53:01;;;;;;;;;6.33;6.33;;;;;-146.67;100.00;57155.34;5042568;28;8821;-81
2023/06/12 03:55:26;;;;;;;;;0.00;0.00;;;;;-146.67;100.00;57155.34;5040777;28;10170;-80
2023/06/12 03:57:51;;;;;;;;;3.00;3.00;;;;;-146.67;100.00;57155.34;5041207;28;8797;-80
2023/06/12 04:00:19;;;;;;;;;11.75;9.00;;;;;-146.67;100.00;57155.34;5037211;28;9570;-80
2023/06/12 04:02:45;;;;;;;;;13.25;13.25;;;;;-146.67;100.00;57155.34;5040986;28;9027;-80
2023/06/12 04:05:10;;;;;;;;;13.00;10.50;;;;;-146.67;100.00;57155.34;5042345;28;9954;-81
2023/06/12 04:07:36;;;;;;;;;0.00;0.00;;;;;-146.67;100.00;57155.34;5041498;28;8890;-80
2023/06/12 04:10:03;;;;;;;;;1.00;1.00;;;;;-146.67;100.00;57155.34;5041559;28;8864;-81
2023/06/12 04:12:29;;;;;;;;;0.00;0.00;;;;;-146.67;100.00;57155.34;5040924;28;8786;-81
2023/06/12 04:14:55;;;;;;;;;12.50;9.75;;;;;-146.67;100.00;57155.34;5040723;28;10019;-81
2023/06/12 04:17:20;;;;;;;;;8.00;8.00;;;;;-146.67;100.00;57155.34;5042279;28;9812;-81
2023/06/12 04:19:48;;;;;;;;;0.00;0.00;;;;;-146.67;100.00;57155.34;5042572;28;8787;-81
2023/06/12 04:22:15;;;;;;;;;0.33;0.00;;;;;-146.67;100.00;57155.34;5042270;28;8819;-81
2023/06/12 04:24:42;;;;;;;;;9.00;6.67;;;;;-146.67;100.00;57155.34;5041769;28;8771;-81
2023/06/12 04:27:10;;;;;;;;;12.75;11.00;;;;;-146.67;100.00;57155.34;5041358;28;8823;-80
2023/06/12 04:29:42;;;;;;;;;0.00;0.00;;;;;-146.67;100.00;57155.34;5044506;28;9759;-81
2023/06/12 04:32:08;;;;;;;;;11.75;10.00;;;;;-146.67;100.00;57155.34;5027318;28;8925;-81
2023/06/12 04:34:39;;;;;;;;;10.25;10.25;;;;;-146.67;100.00;57155.34;5044085;28;9942;-81
2023/06/12 04:37:08;;;;;;;;;12.50;10.25;;;;;-146.67;100.00;57155.34;5045232;28;9986;-80
2023/06/12 04:39:38;;;;;;;;;4.00;3.00;;;;;-146.67;100.00;57155.34;5040740;28;9635;-80
2023/06/12 04:42:05;;;;;;;;;0.00;0.00;;;;;-146.67;100.00;57155.34;5043685;28;8806;-81
2023/06/12 04:44:34;;;;;;;;;10.00;9.75;;;;;-146.67;100.00;57155.34;5044010;28;10121;-81
2023/06/12 04:47:11;;;;;;;;;0.00;0.00;;;;;-146.67;100.00;57155.34;5044155;28;9798;-81
2023/06/12 04:49:40;;;;;;;;;12.00;9.50;;;;;-146.67;100.00;57155.34;5044125;28;8909;-81
2023/06/12 04:52:06;;;;;;;;;12.00;11.25;;;;;-146.67;100.00;57155.34;5044888;28;9694;-81
2023/06/12 04:54:35;;;;;;;;;0.00;0.00;;;;;-146.67;100.00;57155.34;5040100;28;10150;-80
2023/06/12 04:57:12;;;;;;;;;8.00;4.33;;;;;-146.67;100.00;57155.34;5045358;28;8798;-81
2023/06/12 04:59:40;;;;;;;;;0.00;0.00;;;;;-146.67;100.00;57155.34;5037650;28;8842;-81
2023/06/12 05:02:09;;;;;;;;;11.75;10.00;;;;;-146.67;100.00;57155.34;5026676;28;8778;-81
2023/06/12 05:04:41;;;;;;;;;9.75;9.75;;;;;-146.67;100.00;57155.34;5026888;28;10262;-81
2023/06/12 05:07:16;;;;;;;;;0.00;0.00;;;;;-146.67;100.00;57155.34;5045239;28;9955;-81
2023/06/12 05:09:43;;;;;;;;;8.33;6.33;;;;;-146.67;100.00;57155.34;5026575;28;8754;-84
2023/06/12 05:12:08;;;;;;;;;0.00;0.00;;;;;-146.67;100.00;57155.34;5026513;28;8803;-81
2023/06/12 05:14:43;;;;;;;;;0.00;0.00;;;;;-146.67;100.00;57155.34;5044227;28;9608;-81
2023/06/12 05:17:09;;;;;;;;;9.00;8.75;;;;;-146.67;100.00;57155.34;5043761;28;8743;-81
2023/06/12 05:19:36;;;;;;;;;0.00;0.00;;;;;-146.67;100.00;57155.34;5026650;28;9759;-81
2023/06/12 05:22:02;;;;;;;;;0.00;0.00;;;;;-146.67;100.00;57155.34;5044228;28;8811;-81
2023/06/12 05:24:27;;;;;;;;;10.00;8.67;;;;;-146.67;100.00;57155.34;5025799;28;10156;-80
2023/06/12 05:26:53;;;;;;;;;8.25;8.25;;;;;-146.67;100.00;57155.34;5026479;28;8830;-81
2023/06/12 05:29:18;;;;;;;;;0.00;0.00;;;;;-146.67;100.00;57155.34;5043110;28;9092;-81
2023/06/12 05:31:44;;;;;;;;;9.25;8.00;;;;;-146.67;100.00;57155.34;5043536;28;8815;-80
2023/06/12 05:34:10;;;;;;;;;5.67;5.67;;;;;-146.67;100.00;57155.34;5044254;28;8842;-81
2023/06/12 05:36:36;;;;;;;;;8.75;6.25;;;;;-146.67;100.00;57155.34;5017704;28;8793;-82
2023/06/12 05:39:02;;;;;;;;;9.50;8.75;;;;;-146.67;100.00;57155.34;5006223;28;8825;-82
2023/06/12 05:41:28;;;;;;;;;0.00;0.00;;;;;-146.67;100.00;57155.34;5005962;28;9872;-82
2023/06/12 05:43:53;;;;;;;;;0.00;0.00;;;;;-146.67;100.00;57155.34;5008775;28;9889;-84
2023/06/12 05:46:19;;;;;;;;;0.00;0.00;;;;;-146.67;100.00;57155.34;5044432;28;8841;-82
2023/06/12 05:48:44;;;;;;;;;4.33;4.33;;;;;-146.67;100.00;57155.34;5026495;28;8807;-80
2023/06/12 05:51:09;;;;;;;;;0.00;0.00;;;;;-146.67;100.00;57155.34;5042850;28;8834;-81
2023/06/12 05:53:35;;;;;;;;;11.25;7.50;;;;;-146.67;100.00;57155.34;5043290;28;8844;-81
2023/06/12 05:56:00;;;;;;;;;10.00;7.33;;;;;-146.67;100.00;57155.34;5023803;28;8931;-81
2023/06/12 05:58:26;;;;;;;;;0.00;0.00;;;;;-146.67;100.00;57155.34;5025548;28;8834;-81
2023/06/12 06:00:52;;;;;;;;;8.33;7.67;;;;;-146.67;100.00;57155.34;5025205;28;8826;-81
2023/06/12 06:03:19;;;;;;;;;1.00;0.00;;;;;-146.67;100.00;57155.34;5043205;28;8810;-82
2023/06/12 06:05:46;;;;;;;;;10.75;7.50;;;;;-146.67;100.00;57155.34;5024960;28;8779;-81
2023/06/12 06:08:14;;;;;;;;;5.33;5.33;;;;;-146.67;100.00;57155.34;5025400;28;9730;-93
2023/06/12 06:10:40;;;;;;;;;3.00;3.00;;;;;-146.67;100.00;57155.34;5025403;28;8992;-80
2023/06/12 06:13:06;;;;;;;;;7.67;6.67;;;;;-146.67;100.00;57155.34;5043478;28;8894;-80
2023/06/12 06:15:32;;;;;;;;;0.00;0.00;;;;;-146.67;100.00;57155.34;5043304;28;8795;-80
2023/06/12 06:17:57;;;;;;;;;10.00;7.25;;;;;-146.67;100.00;57155.34;5025380;28;8787;-79
2023/06/12 06:20:22;;;;;;;;;0.00;0.00;;;;;-146.67;100.00;57155.34;5025315;28;8823;-79
2023/06/12 06:22:50;;;;;;;;;11.00;8.00;;;;;-146.67;100.00;57155.34;5024058;28;9879;-82
2023/06/12 06:25:16;;;;;;;;;0.00;0.00;;;;;-146.67;100.00;57155.34;4997589;28;61864;-82
2023/06/12 06:27:41;;;;;;;;;0.00;0.00;;;;;-146.67;100.00;57155.34;5003723;28;62005;-78
2023/06/12 06:30:07;;;;;;;;;0.00;0.00;;;;;-146.67;100.00;57155.34;5018224;28;61128;-82
2023/06/12 06:32:32;;;;;;;;;0.00;0.00;;;;;-146.67;100.00;57155.34;5030042;28;61954;-80
2023/06/12 06:34:58;;;;;;;;;10.50;8.75;;;;;-146.67;100.00;57155.34;5010647;28;62054;-81
2023/06/12 06:37:23;;;;;;;;;5.00;5.00;;;;;-146.67;100.00;57155.34;5000924;28;61857;-80
2023/06/12 06:39:48;;;;;;;;;10.00;8.33;;;;;-146.67;41.93;73661.50;5019870;28;61731;-80
2023/06/12 06:42:14;;;;;;;;;0.00;0.00;;;;;-146.67;100.00;57155.34;5039567;28;61831;-80
2023/06/12 06:44:39;;;;;;;;;0.00;0.00;;;;;-146.67;100.00;57155.34;5025343;28;8820;-80
2023/06/12 06:47:05;;;;;;;;;9.33;7.00;;;;;-146.67;100.00;57155.34;5025253;28;9567;-80
2023/06/12 06:49:30;;;;;;;;;0.00;0.00;;;;;-146.67;100.00;57155.34;5043114;28;8898;-80
2023/06/12 06:51:56;;;;;;;;;0.00;0.00;;;;;-146.67;100.00;57155.34;5041819;28;8802;-80
2023/06/12 06:54:22;;;;;;;;;0.00;0.00;;;;;-146.67;100.00;57155.34;5025370;28;8755;-80
2023/06/12 06:56:48;;;;;;;;;0.00;0.00;;;;;-146.67;100.00;57155.34;5024807;28;8823;-79
2023/06/12 06:59:17;;;;;;;;;0.00;0.00;;;;;-146.67;100.00;57155.34;5042672;28;8748;-79
2023/06/12 07:01:42;;;;;;;;;0.00;0.00;;;;;-146.67;100.00;57155.34;5043278;28;8807;-80
2023/06/12 07:04:08;;;;;;;;;0.00;0.00;;;;;-146.67;100.00;57155.34;5024818;28;8830;-80
2023/06/12 07:06:33;;;;;;;;;0.00;0.00;;;;;-146.67;100.00;57155.34;5043183;28;8830;-80
2023/06/12 07:09:02;;;;;;;;;0.00;0.00;;;;;-146.67;100.00;57155.34;5024536;28;8815;-79
2023/06/12 07:11:28;;;;;;;;;0.00;0.00;;;;;-146.67;100.00;57155.34;5024888;28;11267;-80
2023/06/12 07:13:53;;;;;;;;;0.00;0.00;;;;;-146.67;100.00;57155.34;5042671;28;8853;-80
2023/06/12 07:16:19;;;;;;;;;0.00;0.00;;;;;-146.67;100.00;57155.34;5043260;28;8803;-79
2023/06/12 07:18:45;;;;;;;;;0.00;0.00;;;;;-146.67;100.00;57155.34;5024710;28;8825;-79
2023/06/12 07:21:10;;;;;;;;;0.00;0.00;;;;;-146.67;100.00;57155.34;5024878;28;9964;-80
2023/06/12 07:23:36;;;;;;;;;0.00;0.00;;;;;-146.67;100.00;57155.34;5025091;28;8825;-79
2023/06/12 07:26:02;;;;;;;;;0.00;0.00;;;;;-146.67;100.00;57155.34;5024221;28;9689;-79
2023/06/12 07:28:27;;;;;;;;;0.00;0.00;;;;;-146.67;100.00;57155.34;5042948;28;8789;-79
2023/06/12 07:30:52;;;;;;;;;0.00;0.00;;;;;-146.67;100.00;57155.34;5024934;28;9937;-79
2023/06/12 07:33:19;;;;;;;;;0.00;0.00;;;;;-146.67;100.00;57155.34;5024577;28;8834;-79
2023/06/12 07:35:45;;;;;;;;;0.00;0.00;;;;;-146.67;100.00;57155.34;5025067;28;8881;-79
2023/06/12 07:38:12;;;;;;;;;0.00;0.00;;;;;-146.67;100.00;57155.34;5042102;28;8862;-79
2023/06/12 07:40:37;;;;;;;;;0.00;0.00;;;;;-146.67;100.00;57155.34;5024264;28;10206;-79
2023/06/12 07:43:02;;;;;;;;;0.00;0.00;;;;;-146.67;100.00;57155.34;5024643;28;8834;-79
2023/06/12 07:45:28;;;;;;;;;0.00;0.00;;;;;-146.67;100.00;57155.34;5024876;28;8928;-79
2023/06/12 07:47:56;;;;;;;;;0.00;0.00;;;;;-146.67;100.00;57155.34;5024180;28;9566;-79
2023/06/12 07:50:22;;;;;;;;;0.00;0.00;;;;;-146.67;100.00;57155.34;5024834;28;10047;-79
2023/06/12 07:52:47;;;;;;;;;0.00;0.00;;;;;-146.67;100.00;57155.34;5024462;28;9796;-79
2023/06/12 07:55:14;;;;;;;;;0.00;0.00;;;;;-146.67;100.00;57155.34;5042230;28;8829;-80
2023/06/12 07:57:40;;;;;;;;;1.00;0.00;;;;;-146.67;100.00;57155.34;5042297;28;9077;-79
2023/06/12 08:00:07;;;;;;;;;0.00;0.00;;;;;-146.67;100.00;57155.34;5041871;28;8799;-79
2023/06/12 08:02:33;;;;;;;;;0.00;0.00;;;;;-146.67;100.00;57155.34;5024446;28;8856;-79
2023/06/12 08:04:59;;;;;;;;;0.00;0.00;;;;;-146.67;100.00;57155.34;5045807;28;8826;-79
2023/06/12 08:07:28;;;;;;;;;0.00;0.00;;;;;-146.67;100.00;57155.34;5028007;28;8764;-79
2023/06/12 08:09:53;;;;;;;;;0.00;0.00;;;;;-146.67;100.00;57155.34;5044985;28;8791;-79
2023/06/12 08:12:19;;;;;;;;;0.00;0.00;;;;;-146.67;100.00;57155.34;5026725;28;8834;-79
2023/06/12 08:14:47;;;;;;;;;0.00;0.00;;;;;-146.67;100.00;57155.34;5045983;28;8820;-79
2023/06/12 08:17:13;;;;;;;;;0.00;0.00;;;;;-146.67;100.00;57155.34;5027486;28;8783;-79
2023/06/12 08:19:40;;;;;;;;;0.00;0.00;;;;;-146.67;100.00;57155.34;5027940;28;10326;-79
2023/06/12 08:22:07;;;;;;;;;0.00;0.00;;;;;-146.67;100.00;57155.34;5045519;28;8763;-79
2023/06/12 08:24:33;;;;;;;;;0.00;0.00;;;;;-146.67;100.00;57155.34;5027619;28;8834;-79
2023/06/12 08:26:59;;;;;;;;;0.00;0.00;;;;;-146.67;100.00;57155.34;5027276;28;8765;-79
2023/06/12 08:29:25;;;;;;;;;0.00;0.00;;;;;-146.67;100.00;57155.34;5027525;28;9996;-79
2023/06/12 08:31:51;;;;;;;;;0.00;0.00;;;;;-146.67;100.00;57155.34;5045314;28;8954;-79
2023/06/12 08:34:16;;;;;;;;;0.00;0.00;;;;;-146.67;100.00;57155.34;5045014;28;8801;-79
2023/06/12 08:36:41;;;;;;;;;0.00;0.00;;;;;-146.67;100.00;57155.34;5045572;28;9514;-79
2023/06/12 08:39:07;;;;;;;;;0.00;0.00;;;;;-146.67;100.00;57155.34;5043936;28;8868;-79
2023/06/12 08:41:34;;;;;;;;;0.00;0.00;;;;;-146.67;100.00;57155.34;5045077;28;8892;-79
2023/06/12 08:44:00;;;;;;;;;0.67;0.67;;;;;-146.67;100.00;57155.34;5045261;28;8753;-79
2023/06/12 08:46:29;;;;;;;;;0.00;0.00;;;;;-146.67;100.00;57155.34;5043678;28;8806;-78
2023/06/12 08:48:55;;;;;;;;;0.00;0.00;;;;;-146.67;100.00;57155.34;5045479;28;8754;-79
2023/06/12 08:51:23;;;;;;;;;0.00;0.00;;;;;-146.67;100.00;57155.34;5043677;28;8801;-78
2023/06/12 08:53:48;;;;;;;;;0.00;0.00;;;;;-146.67;100.00;57155.34;5045351;28;8734;-78
2023/06/12 08:56:14;;;;;;;;;0.00;0.00;;;;;-146.67;100.00;57155.34;5043667;28;8840;-79
2023/06/12 08:58:39;;;;;;;;;0.00;0.00;;;;;-146.67;100.00;57155.34;5044724;28;8790;-79
2023/06/12 09:01:08;;;;;;;;;0.00;0.00;;;;;-146.67;100.00;57155.34;5026355;28;8807;-79
2023/06/12 09:03:36;;;;;;;;;0.00;0.00;;;;;-146.67;100.00;57155.34;5026775;28;8743;-79
2023/06/12 09:06:05;;;;;;;;;0.00;0.00;;;;;-146.67;100.00;57155.34;5027225;28;9196;-78
2023/06/12 09:08:31;;;;;;;;;0.00;0.00;;;;;-146.67;100.00;57155.34;5044877;28;8775;-79
2023/06/12 09:10:58;;;;;;;;;0.00;0.00;;;;;-146.67;100.00;57155.34;5026600;28;8767;-79
2023/06/12 09:13:23;;;;;;;;;1.00;1.00;;;;;-146.67;100.00;57155.34;5044541;28;8814;-79
2023/06/12 09:15:53;;;;;;;;;0.00;0.00;;;;;-146.67;100.00;57155.34;5044224;28;8806;-79
2023/06/12 09:18:19;;;;;;;;;0.00;0.00;;;;;-146.67;100.00;57155.34;5026980;28;10520;-80
2023/06/12 09:20:45;;;;;;;;;0.00;0.00;;;;;-146.67;100.00;57155.34;5044566;28;8791;-80
2023/06/12 09:23:12;;;;;;;;;0.00;0.00;;;;;-146.67;100.00;57155.34;5026705;28;9703;-80
2023/06/12 09:25:43;;;;;;;;;0.00;0.00;;;;;-146.67;100.00;57155.34;5026504;28;8848;-80
2023/06/12 09:28:10;;;;;;;;;2.33;0.67;;;;;-146.67;100.00;57155.34;5044595;28;8791;-79
2023/06/12 09:30:40;;;;;;;;;0.00;0.00;;;;;-146.67;100.00;57155.34;5044166;28;8810;-79
2023/06/12 09:33:06;;;;;;;;;0.00;0.00;;;;;-146.67;100.00;57155.34;5044495;28;8782;-80
2023/06/12 09:35:32;;;;;;;;;0.00;0.00;;;;;-146.67;100.00;57155.34;5026470;28;8785;-79
2023/06/12 09:37:58;;;;;;;;;0.00;0.00;;;;;-146.67;100.00;57155.34;5042352;28;11144;-79
2023/06/12 09:40:23;;;;;;;;;0.00;0.00;;;;;-146.67;100.00;57155.34;5026340;28;8786;-79
2023/06/12 09:42:49;;;;;;;;;0.00;0.00;;;;;-146.67;100.00;57155.34;5025958;28;8823;-79
2023/06/12 09:45:23;;;;;;;;;0.00;0.00;;;;;-146.67;100.00;57155.34;5044215;28;8755;-79
2023/06/12 09:47:50;;;;;;;;;0.00;0.00;;;;;-146.67;100.00;57155.34;5026612;28;10202;-79
2023/06/12 09:50:16;;;;;;;;;0.00;0.00;;;;;-146.67;100.00;57155.34;5026431;28;8822;-79
2023/06/12 09:52:46;;;;;;;;;0.00;0.00;;;;;-146.67;100.00;57155.34;5042454;28;8826;-79
2023/06/12 09:55:17;;;;;;;;;0.00;0.00;;;;;-146.67;100.00;57155.34;5044696;28;8743;-80
2023/06/12 09:57:51;;;;;;;;;0.00;0.00;;;;;-146.67;100.00;57155.34;5041901;28;10191;-80
2023/06/12 10:00:19;;;;;;;;;0.00;0.00;;;;;-146.67;100.00;57155.34;5031192;28;9740;-80
2023/06/12 10:03:06;;;;;;;;;0.00;0.00;;;;;-146.67;100.00;57155.34;5043635;28;8786;-80
2023/06/12 10:05:37;;;;;;;;;0.00;0.00;;;;;-146.67;100.00;57155.34;5043917;28;8793;-79
2023/06/12 10:08:04;;;;;;;;;0.00;0.00;;;;;-146.67;100.00;57155.34;5043553;28;8782;-79
2023/06/12 10:10:30;;;;;;;;;0.00;0.00;;;;;-146.67;100.00;57155.34;5026346;28;8762;-80
2023/06/12 10:12:56;;;;;;;;;0.00;0.00;;;;;-146.67;100.00;57155.34;5043383;28;8783;-80
2023/06/12 10:15:22;;;;;;;;;0.00;0.00;;;;;-146.67;100.00;57155.34;5025828;28;8751;-80
2023/06/12 10:17:51;;;;;;;;;0.00;0.00;;;;;-146.67;100.00;57155.34;5043602;28;8818;-79
2023/06/12 10:20:18;;;;;;;;;0.00;0.00;;;;;-146.67;100.00;57155.34;5044106;28;8727;-80
2023/06/12 10:22:45;;;;;;;;;0.00;0.00;;;;;-146.67;100.00;57155.34;5043411;28;8783;-80
2023/06/12 10:25:11;;;;;;;;;0.00;0.00;;;;;-146.67;100.00;57155.34;5043618;28;8794;-80
2023/06/12 10:27:38;;;;;;;;;0.00;0.00;;;;;-146.67;100.00;57155.34;5023949;28;9971;-80
2023/06/12 10:30:08;;;;;;;;;0.00;0.00;;;;;-146.67;100.00;57155.34;5043649;28;8758;-80
2023/06/12 10:32:34;;;;;;;;;0.33;0.33;;;;;-146.67;100.00;57155.34;5025602;28;8819;-80
2023/06/12 10:35:01;;;;;;;;;0.00;0.00;;;;;-146.67;100.00;57155.34;5043354;28;8849;-80
2023/06/12 10:37:38;;;;;;;;;0.00;0.00;;;;;-146.67;100.00;57155.34;5043754;28;8821;-80
2023/06/12 10:40:19;;;;;;;;;0.00;0.00;;;;;-146.67;100.00;57155.34;5025121;28;8798;-80
2023/06/12 10:42:52;;;;;;;;;0.00;0.00;;;;;-146.67;100.00;57155.34;5042842;28;8872;-80
2023/06/12 10:45:21;;;;;;;;;0.00;0.00;;;;;-146.67;100.00;57155.34;5043602;28;8921;-80
2023/06/12 10:48:02;;;;;;;;;0.00;0.00;;;;;-146.67;100.00;57155.34;5025434;28;10318;-80
2023/06/12 10:50:28;;;;;;;;;0.00;0.00;;;;;-146.67;100.00;57155.34;5025829;28;8798;-80
2023/06/12 10:52:55;;;;;;;;;0.00;0.00;;;;;-146.67;100.00;57155.34;5024895;28;8814;-80
2023/06/12 10:55:31;;;;;;;;;0.00;0.00;;;;;-146.67;100.00;57155.34;5025436;28;8829;-80
2023/06/12 10:57:59;;;;;;;;;0.00;0.00;;;;;-146.67;100.00;57155.34;5024479;28;10045;-80
2023/06/12 11:00:28;;;;;;;;;0.00;0.00;;;;;-146.67;100.00;57155.34;5025220;28;8822;-80
2023/06/12 11:03:16;;;;;;;;;0.00;0.00;;;;;-146.67;100.00;57155.34;5025019;28;8787;-80
2023/06/12 11:05:48;;;;;;;;;0.00;0.00;;;;;-146.67;100.00;57155.34;5036330;28;8795;-78
2023/06/12 11:08:14;;;;;;;;;0.00;0.00;;;;;-146.67;100.00;57155.34;5042093;28;8825;-79
2023/06/12 11:10:40;;;;;;;;;0.00;0.00;;;;;-146.67;100.00;57155.34;5024562;28;8823;-78
2023/06/12 11:13:05;;;;;;;;;0.00;0.00;;;;;-146.67;100.00;57155.34;5042535;28;8838;-77
2023/06/12 11:15:47;;;;;;;;;0.00;0.00;;;;;-146.67;100.00;57155.34;5026052;28;8783;-81